Lyndora, Pennsylvania
Current Conditions -  °F | °C
As of 3:55 AM on Saturday 25 Oct 2014 (Local Time) from KBTP Reporting Station
Overcast Overcast  
Wind Chill: 46°   Ceiling: 4700
Heat Index: 46°   Visibility: 10mi
Dew Point: 37°   Wind: 0mph
Humidity: 71%   Direction: NA
Pressure: 29.99"   Gusts: NA
Location:  40.85°N, 79.93°W
Report Text: KBTP 250755Z AUTO 00000KT 10SM OVC047 08/03 A2999 RMK AO1
Loading
Personal Weather Stations






























Interactive Weather Map
Tropical Storm Tracking
New forecast layout! Learn more

10-Day Weather Forecast

Advertisements
Track Severe Weather on mobile